createdAt,value
2023-04-07T00:02:01.079Z,90.30
2023-04-07T00:04:29.083Z,90.03
2023-04-07T00:06:58.347Z,90.30
2023-04-07T00:09:25.999Z,90.41
2023-04-07T00:11:53.607Z,90.46
2023-04-07T00:14:21.217Z,90.21
2023-04-07T00:16:48.834Z,90.35
2023-04-07T00:19:16.758Z,90.42
2023-04-07T00:21:44.423Z,90.35
2023-04-07T00:24:16.392Z,90.36
2023-04-07T00:26:51.740Z,90.28
2023-04-07T00:29:19.452Z,90.59
2023-04-07T00:31:47.117Z,90.44
2023-04-07T00:34:14.793Z,90.58
2023-04-07T00:36:42.594Z,90.44
2023-04-07T00:39:10.294Z,90.43
2023-04-07T00:41:39.460Z,90.23
2023-04-07T00:44:07.112Z,90.23
2023-04-07T00:46:34.861Z,90.21
2023-04-07T00:49:02.626Z,90.20
2023-04-07T00:51:31.492Z,90.30
2023-04-07T00:53:59.246Z,90.37
2023-04-07T00:56:26.966Z,90.42
2023-04-07T00:58:56.003Z,90.49
2023-04-07T01:01:26.965Z,90.59
2023-04-07T01:03:59.704Z,90.38
2023-04-07T01:06:31.927Z,90.26
2023-04-07T01:09:04.377Z,90.00
2023-04-07T01:11:36.394Z,90.13
2023-04-07T01:14:05.803Z,89.73
2023-04-07T01:16:36.993Z,89.93
2023-04-07T01:19:10.445Z,89.74
2023-04-07T01:21:38.999Z,89.71
2023-04-07T01:24:40.869Z,89.65
2023-04-07T01:27:18.429Z,89.57
2023-04-07T01:29:50.495Z,89.70
2023-04-07T01:32:20.396Z,89.70
2023-04-07T01:34:49.183Z,89.72
2023-04-07T01:37:17.614Z,89.82
2023-04-07T01:39:45.566Z,89.88
2023-04-07T01:42:13.688Z,90.03
2023-04-07T01:44:41.930Z,90.32
2023-04-07T01:47:11.358Z,90.46
2023-04-07T01:49:39.354Z,90.40
2023-04-07T01:52:07.357Z,90.35
2023-04-07T01:54:35.811Z,90.57
2023-04-07T01:57:03.471Z,90.61
2023-04-07T01:59:31.316Z,90.41
2023-04-07T02:01:59.237Z,90.50
2023-04-07T02:04:34.128Z,90.45
2023-04-07T02:07:04.454Z,90.38
2023-04-07T02:09:33.530Z,90.34
2023-04-07T02:12:01.892Z,90.44
2023-04-07T02:14:30.068Z,90.49
2023-04-07T02:16:58.406Z,90.51
2023-04-07T02:19:27.428Z,90.51
2023-04-07T02:21:56.711Z,90.48
2023-04-07T02:24:24.411Z,90.91
2023-04-07T02:26:52.131Z,90.91
2023-04-07T02:29:19.849Z,90.74
2023-04-07T02:31:47.577Z,90.67
2023-04-07T02:34:15.591Z,90.69
2023-04-07T02:36:43.350Z,90.70
2023-04-07T02:39:12.609Z,90.90
2023-04-07T02:41:40.656Z,90.67
2023-04-07T02:44:08.303Z,90.65
2023-04-07T02:46:36.073Z,90.65
2023-04-07T02:49:03.870Z,90.56
2023-04-07T02:51:31.894Z,90.33
2023-04-07T02:53:59.640Z,90.38
2023-04-07T02:56:28.844Z,90.58
2023-04-07T02:58:56.477Z,90.54
2023-04-07T03:01:24.112Z,90.74
2023-04-07T03:03:52.099Z,90.60
2023-04-07T03:06:20.106Z,90.81
2023-04-07T03:08:47.761Z,90.86
2023-04-07T03:11:15.568Z,90.73
2023-04-07T03:13:44.608Z,90.70
2023-04-07T03:16:12.256Z,90.57
2023-04-07T03:18:39.983Z,90.82
2023-04-07T03:21:07.698Z,90.74
2023-04-07T03:23:35.532Z,90.55
2023-04-07T03:26:03.737Z,90.57
2023-04-07T03:28:31.394Z,90.66
2023-04-07T03:31:00.498Z,90.46
2023-04-07T03:33:28.209Z,90.44
2023-04-07T03:35:55.893Z,90.56
2023-04-07T03:38:23.674Z,90.43
2023-04-07T03:40:51.388Z,90.38
2023-04-07T03:43:19.277Z,90.66
2023-04-07T03:45:47.989Z,90.55
2023-04-07T03:48:17.146Z,90.32
2023-04-07T03:50:44.796Z,90.46
2023-04-07T03:53:13.988Z,90.72
2023-04-07T03:55:41.795Z,90.47
2023-04-07T03:58:09.541Z,90.62
2023-04-07T04:00:37.242Z,90.40
2023-04-07T04:03:05.442Z,90.50
2023-04-07T04:05:34.518Z,90.39
2023-04-07T04:08:02.203Z,90.49
2023-04-07T04:10:29.963Z,90.56
2023-04-07T04:13:00.641Z,90.49
2023-04-07T04:15:28.333Z,90.53
2023-04-07T04:17:56.032Z,90.39
2023-04-07T04:20:23.698Z,90.56
2023-04-07T04:22:52.771Z,90.42
2023-04-07T04:25:20.886Z,90.64
2023-04-07T04:27:48.829Z,90.63
2023-04-07T04:30:16.633Z,90.87
2023-04-07T04:32:44.688Z,90.73
2023-04-07T04:35:12.504Z,90.98
2023-04-07T04:37:40.177Z,90.71
2023-04-07T04:40:11.644Z,90.69
2023-04-07T04:42:39.388Z,90.92
2023-04-07T04:45:08.163Z,90.84
2023-04-07T04:47:35.888Z,91.00
2023-04-07T04:50:03.676Z,91.05
2023-04-07T04:52:31.584Z,91.07
2023-04-07T04:54:59.488Z,91.29
2023-04-07T04:57:28.514Z,91.22
2023-04-07T04:59:56.199Z,91.30
2023-04-07T05:02:24.004Z,91.13
2023-04-07T05:04:51.863Z,91.29
2023-04-07T05:07:19.592Z,91.18
2023-04-07T05:09:47.677Z,91.60
2023-04-07T05:12:15.709Z,91.32
2023-04-07T05:14:44.828Z,91.29
2023-04-07T05:17:12.536Z,91.25
2023-04-07T05:19:40.430Z,91.33
2023-04-07T05:22:08.123Z,91.42
2023-04-07T05:24:35.914Z,91.23
2023-04-07T05:27:03.628Z,91.33
2023-04-07T05:29:31.576Z,91.32
2023-04-07T05:32:01.572Z,91.31
2023-04-07T05:34:29.342Z,91.30
2023-04-07T05:36:57.193Z,91.48
2023-04-07T05:39:25.129Z,91.44
2023-04-07T05:41:52.993Z,91.36
2023-04-07T05:44:20.632Z,91.50
2023-04-07T05:46:48.323Z,91.67
2023-04-07T05:49:20.036Z,91.62
2023-04-07T05:51:49.258Z,91.69
2023-04-07T05:54:17.134Z,91.61
2023-04-07T05:56:44.862Z,91.65
2023-04-07T05:59:12.496Z,91.65
2023-04-07T06:01:40.333Z,91.57
2023-04-07T06:04:08.171Z,91.82
2023-04-07T06:06:38.178Z,92.05
2023-04-07T06:09:07.035Z,91.91
2023-04-07T06:11:35.891Z,91.83
2023-04-07T06:14:03.892Z,91.79
2023-04-07T06:16:31.554Z,91.89
2023-04-07T06:18:59.283Z,91.51
2023-04-07T06:21:27.424Z,91.64
2023-04-07T06:23:56.556Z,91.43
2023-04-07T06:26:24.314Z,91.42
2023-04-07T06:28:52.000Z,91.29
2023-04-07T06:31:19.881Z,91.32
2023-04-07T06:33:47.977Z,91.22
2023-04-07T06:36:16.039Z,91.56
2023-04-07T06:38:43.753Z,91.58
2023-04-07T06:41:16.901Z,91.71
2023-04-07T06:43:45.045Z,91.42
2023-04-07T06:46:12.790Z,91.33
2023-04-07T06:48:40.580Z,91.75
2023-04-07T06:51:08.234Z,91.50
2023-04-07T06:53:35.947Z,91.58
2023-04-07T06:56:07.326Z,91.56
2023-04-07T06:58:37.550Z,91.66
2023-04-07T07:01:06.331Z,91.74
2023-04-07T07:03:34.632Z,91.84
2023-04-07T07:06:02.984Z,91.40
2023-04-07T07:08:31.196Z,91.56
2023-04-07T07:10:59.000Z,91.32
2023-04-07T07:13:27.814Z,91.22
2023-04-07T07:15:57.029Z,91.51
2023-04-07T07:18:24.979Z,91.41
2023-04-07T07:20:52.683Z,91.30
2023-04-07T07:23:20.374Z,91.42
2023-04-07T07:25:48.060Z,91.44
2023-04-07T07:28:16.267Z,91.71
2023-04-07T07:30:44.055Z,91.60
2023-04-07T07:33:13.208Z,91.59
2023-04-07T07:35:41.507Z,91.84
2023-04-07T07:38:09.156Z,91.96
2023-04-07T07:40:37.048Z,92.04
2023-04-07T07:43:04.674Z,91.66
2023-04-07T07:45:32.316Z,91.89
2023-04-07T07:48:00.116Z,91.80
2023-04-07T07:50:29.236Z,91.56
2023-04-07T07:52:56.926Z,91.73
2023-04-07T07:55:24.778Z,91.66
2023-04-07T07:57:52.531Z,91.57
2023-04-07T08:00:20.776Z,91.44
2023-04-07T08:02:48.551Z,91.30
2023-04-07T08:05:16.567Z,91.27
2023-04-07T08:07:46.910Z,91.45
2023-04-07T08:10:14.959Z,91.81
2023-04-07T08:12:42.605Z,92.25
2023-04-07T08:15:10.813Z,91.83
2023-04-07T08:17:38.939Z,91.94
2023-04-07T08:20:08.201Z,92.17
2023-04-07T08:22:35.889Z,92.07
2023-04-07T08:25:05.506Z,92.31
2023-04-07T08:27:33.252Z,92.35
2023-04-07T08:30:01.726Z,92.51
2023-04-07T08:32:36.081Z,92.52
2023-04-07T08:35:03.942Z,92.51
2023-04-07T08:37:31.972Z,92.50
2023-04-07T08:39:59.674Z,92.64
2023-04-07T08:42:30.767Z,92.89
2023-04-07T08:45:01.201Z,92.74
2023-04-07T08:47:29.475Z,92.70
2023-04-07T08:49:59.046Z,92.21
2023-04-07T08:52:33.416Z,92.74
2023-04-07T08:55:02.971Z,92.58
2023-04-07T08:57:32.720Z,92.97
2023-04-07T09:00:05.563Z,92.78
2023-04-07T09:02:35.161Z,93.43
2023-04-07T09:05:05.193Z,93.35
2023-04-07T09:07:33.956Z,93.60
2023-04-07T09:10:02.077Z,93.19
2023-04-07T09:12:30.544Z,92.74
2023-04-07T09:14:59.692Z,92.49
2023-04-07T09:17:27.900Z,92.88
2023-04-07T09:19:57.708Z,92.87
2023-04-07T09:22:39.429Z,92.78
2023-04-07T09:25:17.753Z,92.57
2023-04-07T09:27:59.210Z,92.62
2023-04-07T09:30:28.847Z,92.47
2023-04-07T09:32:56.830Z,92.58
2023-04-07T09:35:24.867Z,92.11
2023-04-07T09:38:06.255Z,92.41
2023-04-07T09:40:34.463Z,92.56
2023-04-07T09:46:10.237Z,92.69
2023-04-07T09:48:38.503Z,92.06
2023-04-07T09:51:07.835Z,91.67
2023-04-07T09:53:48.710Z,91.63
2023-04-07T09:56:18.025Z,90.99
2023-04-07T09:58:47.248Z,90.67
2023-04-07T10:01:18.056Z,90.97
2023-04-07T10:03:47.859Z,91.48
2023-04-07T10:06:16.551Z,91.04
2023-04-07T10:08:44.592Z,90.93
2023-04-07T10:11:12.286Z,90.71
2023-04-07T10:13:41.437Z,90.91
2023-04-07T10:16:09.644Z,90.07
2023-04-07T10:18:40.405Z,90.12
2023-04-07T10:21:09.269Z,90.35
2023-04-07T10:23:50.423Z,90.02
2023-04-07T10:26:19.626Z,89.96
2023-04-07T10:28:50.802Z,89.73
2023-04-07T10:31:19.155Z,90.16
2023-04-07T10:33:52.855Z,90.08
2023-04-07T10:36:21.497Z,89.51
2023-04-07T10:39:20.464Z,89.79
2023-04-07T10:41:48.134Z,90.26
2023-04-07T10:44:48.204Z,90.66
2023-04-07T10:47:16.265Z,90.92
2023-04-07T10:50:19.526Z,89.40
2023-04-07T10:52:47.714Z,89.80
2023-04-07T10:55:31.659Z,89.82
2023-04-07T10:58:18.860Z,89.53
2023-04-07T11:01:20.779Z,89.59
2023-04-07T11:03:56.884Z,89.63
2023-04-07T11:06:27.153Z,90.07
2023-04-07T11:08:55.009Z,90.50
2023-04-07T11:11:38.429Z,90.15
2023-04-07T11:14:06.437Z,89.75
2023-04-07T11:16:46.970Z,89.87
2023-04-07T11:19:14.698Z,89.94
2023-04-07T11:21:43.807Z,90.41
2023-04-07T11:24:11.728Z,90.11
2023-04-07T11:26:40.593Z,89.60
2023-04-07T11:29:09.073Z,89.26
2023-04-07T11:31:37.199Z,89.53
2023-04-07T11:34:06.148Z,89.11
2023-04-07T11:36:35.665Z,89.32
2023-04-07T11:39:04.962Z,89.56
2023-04-07T11:41:33.871Z,89.83
2023-04-07T11:44:08.315Z,90.10
2023-04-07T11:46:36.765Z,89.61
2023-04-07T11:49:12.599Z,89.76
2023-04-07T11:51:40.573Z,90.41
2023-04-07T11:54:10.107Z,90.64
2023-04-07T11:56:48.267Z,91.28
2023-04-07T11:59:23.734Z,90.08
2023-04-07T12:01:53.441Z,89.86
2023-04-07T12:04:23.196Z,89.94
2023-04-07T12:06:51.306Z,90.10
2023-04-07T12:09:32.279Z,89.60
2023-04-07T12:12:00.183Z,89.47
2023-04-07T12:14:28.730Z,88.76
2023-04-07T12:16:58.073Z,88.40
2023-04-07T12:19:26.917Z,88.33
2023-04-07T12:21:54.668Z,88.58
2023-04-07T12:24:22.453Z,88.05
2023-04-07T12:26:51.552Z,87.48
2023-04-07T12:29:20.343Z,87.73
2023-04-07T12:31:50.867Z,87.82
2023-04-07T12:34:19.287Z,88.66
2023-04-07T12:36:46.983Z,88.56
2023-04-07T12:39:14.659Z,88.14
2023-04-07T12:41:42.431Z,87.92
2023-04-07T12:44:11.471Z,87.94
2023-04-07T12:46:39.219Z,87.84
2023-04-07T12:49:07.136Z,87.49
2023-04-07T12:51:34.910Z,87.15
2023-04-07T12:54:03.557Z,86.72
2023-04-07T12:56:31.811Z,86.81
2023-04-07T12:59:03.067Z,87.42
2023-04-07T13:01:33.111Z,87.78
2023-04-07T13:04:00.996Z,87.74
2023-04-07T13:06:28.852Z,87.59
2023-04-07T13:08:57.321Z,87.48
2023-04-07T13:11:25.747Z,87.43
2023-04-07T13:13:56.209Z,87.39
2023-04-07T13:16:25.252Z,87.64
2023-04-07T13:18:54.421Z,87.53
2023-04-07T13:23:53.712Z,86.74
2023-04-07T13:26:22.262Z,86.96
2023-04-07T13:28:50.123Z,86.18
2023-04-07T13:31:18.153Z,85.74
2023-04-07T13:33:46.595Z,86.23
2023-04-07T13:36:15.819Z,85.89
2023-04-07T13:38:43.616Z,86.60
2023-04-07T13:41:11.291Z,85.93
2023-04-07T13:43:38.933Z,85.90
2023-04-07T13:46:17.137Z,86.12
2023-04-07T13:48:49.522Z,86.37
2023-04-07T13:51:19.730Z,86.24
2023-04-07T13:53:47.910Z,85.72
2023-04-07T13:56:15.994Z,86.87
2023-04-07T13:58:43.656Z,86.47
2023-04-07T14:01:11.560Z,85.48
2023-04-07T14:03:39.318Z,85.91
2023-04-07T14:06:07.095Z,86.34
2023-04-07T14:08:36.229Z,86.04
2023-04-07T14:11:04.014Z,86.25
2023-04-07T14:13:32.097Z,86.20
2023-04-07T14:15:59.959Z,86.76
2023-04-07T14:18:28.012Z,86.50
2023-04-07T14:20:55.805Z,86.30
2023-04-07T14:23:36.043Z,85.15
2023-04-07T14:26:06.185Z,85.66
2023-04-07T14:28:33.858Z,85.39
2023-04-07T14:31:01.919Z,85.13
2023-04-07T14:33:29.663Z,83.91
2023-04-07T14:35:57.450Z,83.10
2023-04-07T14:38:26.004Z,83.97
2023-04-07T14:40:53.834Z,83.75
2023-04-07T14:43:23.073Z,83.67
2023-04-07T14:45:50.891Z,82.29
2023-04-07T14:48:18.582Z,82.75
2023-04-07T14:50:47.661Z,81.43
2023-04-07T14:53:16.217Z,81.19
2023-04-07T14:55:43.918Z,81.60
2023-04-07T14:58:11.566Z,82.18
2023-04-07T15:00:40.697Z,81.86
2023-04-07T15:03:08.696Z,82.13
2023-04-07T15:05:36.536Z,81.99
2023-04-07T15:08:04.348Z,82.25
2023-04-07T15:10:35.520Z,82.89
2023-04-07T15:13:03.588Z,81.46
2023-04-07T15:15:31.308Z,80.15
2023-04-07T15:18:00.424Z,80.39
2023-04-07T15:20:28.157Z,80.05
2023-04-07T15:22:55.872Z,79.42
2023-04-07T15:25:23.955Z,79.82
2023-04-07T15:27:51.652Z,79.42
2023-04-07T15:30:19.545Z,78.72
2023-04-07T15:32:58.000Z,79.22
2023-04-07T15:35:27.211Z,78.99
2023-04-07T15:37:54.938Z,78.81
2023-04-07T15:40:22.909Z,78.97
2023-04-07T15:42:50.656Z,78.78
2023-04-07T15:45:18.333Z,79.47
2023-04-07T15:47:46.113Z,79.20
2023-04-07T15:50:13.827Z,79.42
2023-04-07T15:52:42.919Z,79.17
2023-04-07T15:55:10.899Z,79.48
2023-04-07T15:57:38.551Z,78.94
2023-04-07T16:00:07.599Z,79.79
2023-04-07T16:04:24.518Z,80.52
2023-04-07T16:06:52.118Z,81.42
2023-04-07T16:09:19.865Z,81.06
2023-04-07T16:11:47.526Z,79.67
2023-04-07T16:14:15.192Z,78.98
2023-04-07T16:16:44.465Z,78.53
2023-04-07T16:19:14.561Z,79.09
2023-04-07T16:21:43.698Z,79.23
2023-04-07T16:24:11.480Z,79.10
2023-04-07T16:27:49.143Z,80.16
2023-04-07T16:30:18.274Z,80.37
2023-04-07T16:32:46.834Z,78.64
2023-04-07T16:35:15.968Z,79.61
2023-04-07T16:37:46.144Z,78.82
2023-04-07T16:40:14.294Z,79.91
2023-04-07T16:42:42.056Z,78.75
2023-04-07T16:45:11.948Z,78.48
2023-04-07T16:47:44.082Z,78.24
2023-04-07T16:50:11.936Z,78.95
2023-04-07T16:52:40.451Z,78.80
2023-04-07T16:55:08.832Z,78.55
2023-04-07T16:57:36.554Z,78.24
2023-04-07T17:00:05.817Z,78.61
2023-04-07T17:02:35.137Z,78.64
2023-04-07T17:05:03.068Z,79.40
2023-04-07T17:07:30.762Z,78.36
2023-04-07T17:09:58.582Z,79.23
2023-04-07T17:12:26.408Z,79.56
2023-04-07T17:14:54.113Z,80.32
2023-04-07T17:17:21.800Z,80.05
2023-04-07T17:19:50.877Z,79.11
2023-04-07T17:22:18.604Z,78.91
2023-04-07T17:24:46.296Z,79.70
2023-04-07T17:27:13.997Z,80.44
2023-04-07T17:29:41.686Z,79.93
2023-04-07T17:32:09.420Z,80.62
2023-04-07T17:36:58.704Z,80.69
2023-04-07T17:39:26.400Z,80.14
2023-04-07T17:41:54.108Z,80.90
2023-04-07T17:44:21.927Z,81.94
2023-04-07T17:46:49.742Z,81.86
2023-04-07T17:49:17.485Z,81.90
2023-04-07T17:51:45.840Z,80.96
2023-04-07T17:54:14.919Z,80.25
2023-04-07T17:56:42.593Z,81.56
2023-04-07T17:59:10.294Z,81.28
2023-04-07T18:01:38.098Z,82.00
2023-04-07T18:04:06.704Z,81.95
2023-04-07T18:06:35.027Z,81.09
2023-04-07T18:09:04.720Z,82.08
2023-04-07T18:11:33.810Z,82.92
2023-04-07T18:14:01.563Z,83.44
2023-04-07T18:16:29.447Z,82.26
2023-04-07T18:18:57.638Z,82.88
2023-04-07T18:21:25.298Z,83.62
2023-04-07T18:23:52.937Z,83.53
2023-04-07T18:26:20.602Z,83.95
2023-04-07T18:28:49.666Z,83.01
2023-04-07T18:31:17.422Z,83.31
2023-04-07T18:33:45.237Z,84.40
2023-04-07T18:36:14.293Z,84.46
2023-04-07T18:38:41.904Z,84.63
2023-04-07T18:41:09.586Z,83.09
2023-04-07T18:43:37.299Z,83.43
2023-04-07T18:46:07.138Z,84.23
2023-04-07T18:48:34.921Z,84.27
2023-04-07T18:51:02.649Z,84.38
2023-04-07T18:53:30.511Z,84.58
2023-04-07T18:55:58.152Z,84.54
2023-04-07T18:58:25.947Z,84.65
2023-04-07T19:00:54.540Z,84.44
2023-04-07T19:03:23.764Z,84.38
2023-04-07T19:05:52.706Z,84.58
2023-04-07T19:08:20.672Z,84.52
2023-04-07T19:10:49.319Z,84.37
2023-04-07T19:13:18.570Z,84.51
2023-04-07T19:15:46.749Z,84.36
2023-04-07T19:18:14.627Z,84.28
2023-04-07T19:20:43.724Z,84.20
2023-04-07T19:23:11.436Z,84.41
2023-04-07T19:25:40.142Z,83.81
2023-04-07T19:28:07.845Z,84.19
2023-04-07T19:30:35.529Z,83.88
2023-04-07T19:33:03.618Z,84.09
2023-04-07T19:35:32.118Z,83.83
2023-04-07T19:38:02.067Z,83.69
2023-04-07T19:40:31.369Z,83.75
2023-04-07T19:42:59.090Z,83.65
2023-04-07T19:45:27.033Z,83.67
2023-04-07T19:47:56.746Z,83.14
2023-04-07T19:50:25.020Z,83.48
2023-04-07T19:52:53.329Z,83.31
2023-04-07T19:55:22.691Z,83.36
2023-04-07T19:57:50.419Z,83.06
2023-04-07T20:00:18.614Z,82.81
2023-04-07T20:02:46.407Z,82.43
2023-04-07T20:05:14.115Z,82.82
2023-04-07T20:07:41.770Z,83.23
2023-04-07T20:10:10.003Z,83.34
2023-04-07T20:12:39.010Z,83.07
2023-04-07T20:15:08.234Z,83.04
2023-04-07T20:17:36.802Z,83.22
2023-04-07T20:20:04.530Z,83.15
2023-04-07T20:22:32.237Z,83.20
2023-04-07T20:24:59.879Z,83.17
2023-04-07T20:27:27.903Z,83.61
2023-04-07T20:29:57.218Z,83.42
2023-04-07T20:32:24.995Z,83.01
2023-04-07T20:34:52.689Z,82.92
2023-04-07T20:37:20.552Z,82.23
2023-04-07T20:39:48.494Z,82.07
2023-04-07T20:42:16.556Z,81.87
2023-04-07T20:44:44.302Z,82.44
2023-04-07T20:47:14.068Z,82.21
2023-04-07T20:49:43.561Z,82.22
2023-04-07T20:52:11.213Z,82.02
2023-04-07T20:54:40.271Z,82.07
2023-04-07T20:57:07.915Z,81.52
2023-04-07T20:59:36.132Z,81.61
2023-04-07T21:02:04.312Z,81.50
2023-04-07T21:04:33.812Z,81.25
2023-04-07T21:07:01.520Z,81.66
2023-04-07T21:09:29.230Z,81.34
2023-04-07T21:11:56.956Z,81.43
2023-04-07T21:14:24.667Z,81.41
2023-04-07T21:16:52.870Z,81.66
2023-04-07T21:19:20.760Z,81.58
2023-04-07T21:21:50.012Z,81.35
2023-04-07T21:24:17.688Z,81.15
2023-04-07T21:26:45.461Z,80.82
2023-04-07T21:29:13.221Z,81.10
2023-04-07T21:31:41.042Z,81.24
2023-04-07T21:34:09.001Z,81.39
2023-04-07T21:36:36.697Z,81.23
2023-04-07T21:39:06.587Z,81.09
2023-04-07T21:41:34.345Z,81.25
2023-04-07T21:44:02.697Z,81.15
2023-04-07T21:46:30.970Z,81.17
2023-04-07T21:48:58.692Z,81.16
2023-04-07T21:51:27.517Z,81.23
2023-04-07T21:53:55.417Z,80.79
2023-04-07T21:56:24.434Z,80.55
2023-04-07T21:58:52.176Z,80.69
2023-04-07T22:01:19.891Z,80.63
2023-04-07T22:03:47.728Z,80.66
2023-04-07T22:06:15.456Z,80.72
2023-04-07T22:08:48.909Z,80.15
2023-04-07T22:11:28.225Z,80.64
2023-04-07T22:13:56.049Z,80.95
2023-04-07T22:16:23.772Z,80.29
2023-04-07T22:18:51.888Z,80.85
2023-04-07T22:21:19.660Z,80.83
2023-04-07T22:23:47.318Z,80.16
2023-04-07T22:26:15.350Z,80.63
2023-04-07T22:28:44.476Z,80.53
2023-04-07T22:31:12.217Z,79.94
2023-04-07T22:33:39.901Z,80.22
2023-04-07T22:36:07.868Z,79.51
2023-04-07T22:38:35.636Z,79.83
2023-04-07T22:41:03.359Z,80.01
2023-04-07T22:43:31.036Z,80.34
2023-04-07T22:46:00.172Z,80.09
2023-04-07T22:48:28.297Z,80.18
2023-04-07T22:50:56.571Z,80.46
2023-04-07T22:53:24.271Z,80.62
2023-04-07T22:55:52.175Z,80.39
2023-04-07T22:58:19.818Z,80.30
2023-04-07T23:00:47.527Z,80.22
2023-04-07T23:03:16.811Z,80.38
2023-04-07T23:05:44.533Z,80.24
2023-04-07T23:08:12.188Z,80.02
2023-04-07T23:10:39.891Z,79.67
2023-04-07T23:13:07.555Z,79.88
2023-04-07T23:15:35.908Z,79.77
2023-04-07T23:18:03.713Z,79.51
2023-04-07T23:20:32.786Z,79.36
2023-04-07T23:23:00.655Z,79.10
2023-04-07T23:25:28.391Z,78.50
2023-04-07T23:27:56.150Z,77.99
2023-04-07T23:30:23.886Z,78.12
2023-04-07T23:32:51.812Z,77.74
2023-04-07T23:35:19.811Z,77.67
2023-04-07T23:37:48.989Z,77.65
2023-04-07T23:40:16.763Z,77.90
2023-04-07T23:42:44.432Z,77.44
2023-04-07T23:45:12.540Z,77.10
2023-04-07T23:47:40.353Z,76.61
2023-04-07T23:50:09.329Z,76.58
2023-04-07T23:52:36.940Z,76.45
2023-04-07T23:55:07.198Z,76.45
2023-04-07T23:57:34.909Z,76.20
